createdAt,value
2018-11-13T00:00:23.758Z,65.26
2018-11-13T00:02:53.581Z,65.25
2018-11-13T00:05:23.400Z,65.89
2018-11-13T00:07:52.569Z,65.81
2018-11-13T00:10:21.790Z,66.38
2018-11-13T00:12:50.934Z,66.82
2018-11-13T00:15:20.073Z,66.52
2018-11-13T00:17:49.211Z,67.09
2018-11-13T00:20:19.100Z,68.05
2018-11-13T00:22:48.234Z,68.65
2018-11-13T00:25:18.516Z,69.76
2018-11-13T00:27:47.744Z,69.90
2018-11-13T00:30:18.335Z,71.14
2018-11-13T00:32:47.516Z,71.26
2018-11-13T00:35:17.242Z,71.51
2018-11-13T00:37:47.061Z,72.19
2018-11-13T00:40:16.785Z,71.83
2018-11-13T00:42:46.935Z,71.87
2018-11-13T00:45:16.147Z,72.55
2018-11-13T00:47:46.170Z,72.02
2018-11-13T00:50:17.504Z,72.01
2018-11-13T00:52:47.064Z,72.01
2018-11-13T00:55:16.368Z,72.20
2018-11-13T00:57:46.287Z,72.82
2018-11-13T01:00:17.878Z,71.69
2018-11-13T01:02:46.970Z,71.71
2018-11-13T01:05:17.404Z,71.44
2018-11-13T01:07:47.493Z,72.42
2018-11-13T01:10:17.792Z,71.93
2018-11-13T01:12:47.431Z,71.33
2018-11-13T01:15:17.786Z,72.10
2018-11-13T01:17:47.448Z,72.50
2018-11-13T01:20:17.346Z,71.54
2018-11-13T01:22:46.500Z,71.69
2018-11-13T01:25:16.981Z,71.85
2018-11-13T01:27:46.704Z,71.93
2018-11-13T01:30:16.910Z,72.16
2018-11-13T01:32:46.406Z,70.91
2018-11-13T01:35:17.263Z,71.29
2018-11-13T01:37:46.870Z,70.43
2018-11-13T01:40:19.462Z,71.49
2018-11-13T01:42:48.577Z,72.29
2018-11-13T01:45:18.731Z,72.66
2018-11-13T01:47:47.861Z,72.24
2018-11-13T01:50:17.970Z,71.82
2018-11-13T01:52:47.166Z,71.46
2018-11-13T01:55:16.888Z,72.77
2018-11-13T01:57:46.393Z,72.05
2018-11-13T02:00:19.386Z,72.66
2018-11-13T02:02:49.586Z,72.69
2018-11-13T02:05:20.187Z,72.44
2018-11-13T02:07:49.722Z,73.01
2018-11-13T02:10:19.034Z,73.54
2018-11-13T02:12:48.640Z,73.13
2018-11-13T02:15:18.171Z,72.48
2018-11-13T02:17:47.353Z,73.76
2018-11-13T02:20:19.197Z,72.79
2018-11-13T02:22:48.349Z,73.29
2018-11-13T02:25:18.940Z,73.49
2018-11-13T02:27:48.427Z,73.71
2018-11-13T02:30:18.775Z,73.86
2018-11-13T02:32:48.386Z,73.80
2018-11-13T02:35:17.840Z,73.72
2018-11-13T02:37:46.924Z,72.65
2018-11-13T02:40:17.136Z,71.79
2018-11-13T02:42:46.816Z,71.07
2018-11-13T02:45:17.731Z,70.37
2018-11-13T02:47:46.883Z,69.19
2018-11-13T02:50:17.643Z,69.76
2018-11-13T02:52:46.803Z,70.26
2018-11-13T02:55:16.444Z,69.35
2018-11-13T02:57:46.988Z,69.14
2018-11-13T03:00:18.564Z,69.66
2018-11-13T03:02:47.706Z,69.72
2018-11-13T03:05:18.146Z,70.20
2018-11-13T03:07:47.341Z,70.12
2018-11-13T03:10:17.709Z,70.86
2018-11-13T03:12:46.859Z,70.27
2018-11-13T03:15:17.550Z,70.66
2018-11-13T03:17:46.731Z,70.47
2018-11-13T03:20:17.524Z,70.53
2018-11-13T03:22:47.076Z,70.58
2018-11-13T03:25:17.615Z,70.69
2018-11-13T03:27:46.776Z,70.67
2018-11-13T03:30:21.139Z,70.72
2018-11-13T03:32:50.623Z,70.83
2018-11-13T03:35:19.785Z,71.08
2018-11-13T03:37:48.948Z,70.55
2018-11-13T03:40:18.339Z,70.90
2018-11-13T03:42:48.444Z,71.44
2018-11-13T03:45:18.251Z,70.25
2018-11-13T03:47:47.475Z,70.50
2018-11-13T03:50:17.886Z,70.12
2018-11-13T03:52:47.284Z,70.01
2018-11-13T03:55:17.823Z,69.99
2018-11-13T03:57:47.666Z,70.15
2018-11-13T04:00:18.059Z,69.70
2018-11-13T04:02:47.427Z,71.00
2018-11-13T04:05:17.661Z,70.45
2018-11-13T04:07:50.038Z,69.66
2018-11-13T04:10:20.196Z,70.53
2018-11-13T04:12:49.466Z,69.74
2018-11-13T04:15:21.033Z,69.38
2018-11-13T04:17:50.174Z,70.66
2018-11-13T04:20:20.455Z,70.71
2018-11-13T04:22:49.839Z,69.67
2018-11-13T04:25:18.998Z,70.73
2018-11-13T04:27:48.140Z,69.71
2018-11-13T04:30:18.539Z,69.66
2018-11-13T04:32:47.693Z,70.12
2018-11-13T04:35:17.778Z,69.91
2018-11-13T04:37:47.117Z,69.96
2018-11-13T04:40:18.553Z,70.12
2018-11-13T04:42:52.960Z,70.36
2018-11-13T04:45:23.629Z,69.92
2018-11-13T04:47:52.747Z,70.47
2018-11-13T04:50:22.907Z,70.24
2018-11-13T04:52:52.077Z,70.31
2018-11-13T04:55:21.246Z,70.34
2018-11-13T04:57:50.817Z,69.79
2018-11-13T05:00:21.130Z,70.78
2018-11-13T05:02:50.385Z,70.34
2018-11-13T05:05:20.240Z,69.77
2018-11-13T05:07:50.583Z,70.23
2018-11-13T05:10:19.867Z,70.14
2018-11-13T05:12:49.326Z,69.67
2018-11-13T05:15:18.530Z,70.17
2018-11-13T05:17:47.980Z,69.89
2018-11-13T05:20:17.891Z,69.72
2018-11-13T05:22:47.070Z,70.34
2018-11-13T05:25:18.120Z,69.75
2018-11-13T05:27:47.340Z,69.54
2018-11-13T05:30:19.070Z,70.39
2018-11-13T05:32:48.315Z,70.15
2018-11-13T05:35:18.608Z,70.37
2018-11-13T05:37:48.023Z,69.63
2018-11-13T05:40:19.759Z,69.78
2018-11-13T05:42:48.928Z,70.22
2018-11-13T05:45:22.564Z,69.59
2018-11-13T05:47:51.715Z,70.19
2018-11-13T05:50:21.066Z,70.84
2018-11-13T05:52:51.503Z,70.82
2018-11-13T05:55:20.715Z,70.34
2018-11-13T05:57:50.101Z,70.56
2018-11-13T06:00:22.451Z,71.26
2018-11-13T06:02:51.607Z,71.80
2018-11-13T06:05:20.759Z,71.00
2018-11-13T06:07:49.924Z,71.06
2018-11-13T06:10:19.240Z,72.16
2018-11-13T06:12:48.383Z,72.21
2018-11-13T06:15:17.554Z,71.46
2018-11-13T06:17:46.799Z,71.75
2018-11-13T06:20:17.089Z,71.29
2018-11-13T06:22:47.619Z,71.57
2018-11-13T06:25:17.710Z,72.80
2018-11-13T06:27:47.843Z,72.32
2018-11-13T06:30:21.843Z,72.27
2018-11-13T06:32:51.363Z,72.61
2018-11-13T06:35:20.514Z,72.18
2018-11-13T06:37:49.695Z,71.99
2018-11-13T06:40:18.831Z,72.56
2018-11-13T06:42:48.073Z,72.37
2018-11-13T06:45:20.824Z,72.39
2018-11-13T06:47:50.443Z,71.52
2018-11-13T06:50:19.584Z,71.78
2018-11-13T06:52:49.654Z,71.87
2018-11-13T06:55:26.624Z,72.53
2018-11-13T06:57:55.775Z,72.63
2018-11-13T07:00:24.982Z,72.57
2018-11-13T07:02:54.139Z,72.05
2018-11-13T07:05:23.287Z,72.19
2018-11-13T07:07:52.445Z,73.01
2018-11-13T07:10:22.944Z,72.31
2018-11-13T07:12:53.004Z,72.23
2018-11-13T07:15:24.198Z,72.52
2018-11-13T07:17:54.747Z,72.27
2018-11-13T07:20:25.061Z,71.77
2018-11-13T07:22:54.204Z,72.28
2018-11-13T07:25:23.445Z,71.79
2018-11-13T07:27:52.792Z,72.04
2018-11-13T07:30:22.897Z,72.51
2018-11-13T07:32:52.038Z,72.10
2018-11-13T07:35:21.859Z,71.72
2018-11-13T07:37:55.590Z,72.53
2018-11-13T07:40:24.740Z,71.92
2018-11-13T07:42:54.203Z,72.18
2018-11-13T07:45:23.352Z,71.82
2018-11-13T07:47:53.105Z,72.26
2018-11-13T07:50:22.143Z,71.36
2018-11-13T07:52:51.300Z,71.46
2018-11-13T07:55:20.695Z,71.42
2018-11-13T07:57:49.831Z,71.74
2018-11-13T08:00:21.039Z,71.71
2018-11-13T08:02:51.460Z,71.77
2018-11-13T08:05:20.779Z,71.34
2018-11-13T08:07:50.163Z,71.17
2018-11-13T08:10:19.343Z,71.60
2018-11-13T08:12:48.812Z,70.88
2018-11-13T08:15:18.947Z,71.36
2018-11-13T08:17:48.797Z,71.05
2018-11-13T08:20:18.870Z,71.56
2018-11-13T08:22:48.971Z,71.41
2018-11-13T08:25:18.964Z,71.89
2018-11-13T08:27:48.821Z,71.63
2018-11-13T08:30:19.640Z,72.21
2018-11-13T08:32:49.001Z,71.71
2018-11-13T08:35:18.870Z,71.61
2018-11-13T08:37:48.996Z,71.64
2018-11-13T08:40:19.271Z,71.24
2018-11-13T08:42:48.918Z,71.74
2018-11-13T08:45:18.995Z,71.89
2018-11-13T08:47:49.010Z,71.95
2018-11-13T08:50:19.336Z,71.41
2018-11-13T08:52:48.884Z,71.01
2018-11-13T08:55:18.924Z,71.65
2018-11-13T08:57:48.924Z,71.44
2018-11-13T09:00:19.824Z,71.27
2018-11-13T09:02:49.647Z,71.51
2018-11-13T09:05:19.296Z,71.74
2018-11-13T09:07:49.034Z,71.41
2018-11-13T09:10:19.284Z,71.91
2018-11-13T09:12:49.022Z,71.48
2018-11-13T09:15:20.431Z,71.33
2018-11-13T09:17:49.587Z,71.49
2018-11-13T09:20:20.060Z,70.40
2018-11-13T09:22:49.246Z,70.36
2018-11-13T09:25:20.346Z,70.23
2018-11-13T09:27:49.541Z,70.08
2018-11-13T09:30:20.616Z,70.42
2018-11-13T09:32:50.009Z,70.93
2018-11-13T09:35:20.260Z,69.69
2018-11-13T09:37:49.407Z,69.97
2018-11-13T09:40:20.816Z,70.31
2018-11-13T09:42:51.373Z,70.65
2018-11-13T09:45:20.639Z,70.39
2018-11-13T09:47:49.822Z,71.33
2018-11-13T09:50:20.442Z,70.69
2018-11-13T09:52:51.914Z,70.88
2018-11-13T09:55:23.068Z,70.41
2018-11-13T09:57:52.220Z,71.71
2018-11-13T10:00:22.738Z,70.51
2018-11-13T10:02:54.864Z,70.43
2018-11-13T10:05:23.688Z,70.64
2018-11-13T10:07:53.349Z,70.45
2018-11-13T10:10:22.704Z,70.79
2018-11-13T10:12:51.791Z,70.49
2018-11-13T10:15:25.175Z,70.58
2018-11-13T10:17:54.413Z,70.29
2018-11-13T10:20:23.551Z,69.39
2018-11-13T10:22:53.867Z,69.06
2018-11-13T10:25:23.027Z,68.86
2018-11-13T10:27:52.168Z,69.11
2018-11-13T10:30:22.493Z,69.06
2018-11-13T10:32:52.491Z,69.16
2018-11-13T10:35:22.935Z,68.69
2018-11-13T10:37:52.131Z,68.96
2018-11-13T10:40:22.175Z,68.38
2018-11-13T10:42:51.664Z,68.48
2018-11-13T10:45:27.400Z,69.35
2018-11-13T10:47:56.931Z,69.37
2018-11-13T10:50:27.109Z,67.84
2018-11-13T10:52:56.423Z,69.41
2018-11-13T10:55:25.585Z,69.58
2018-11-13T10:57:54.822Z,68.20
2018-11-13T11:01:31.924Z,69.03
2018-11-13T11:04:07.223Z,68.88
2018-11-13T11:06:36.484Z,68.70
2018-11-13T11:09:09.182Z,69.05
2018-11-13T11:11:39.053Z,68.64
2018-11-13T11:14:08.209Z,68.68
2018-11-13T11:16:37.360Z,68.63
2018-11-13T11:19:06.558Z,68.18
2018-11-13T11:21:35.758Z,68.77
2018-11-13T11:24:06.495Z,68.24
2018-11-13T11:26:35.556Z,68.36
2018-11-13T11:29:06.004Z,68.49
2018-11-13T11:31:35.160Z,68.73
2018-11-13T11:34:04.602Z,68.96
2018-11-13T11:36:33.794Z,68.80
2018-11-13T11:39:03.232Z,68.19
2018-11-13T11:41:32.280Z,68.15
2018-11-13T11:44:01.415Z,67.72
2018-11-13T11:46:30.591Z,68.47
2018-11-13T11:48:59.764Z,68.54
2018-11-13T11:51:28.988Z,68.36
2018-11-13T11:53:58.207Z,68.83
2018-11-13T11:56:27.275Z,68.04
2018-11-13T11:58:57.385Z,68.18
2018-11-13T12:01:26.622Z,68.58
2018-11-13T12:03:55.779Z,67.56
2018-11-13T12:06:24.985Z,68.30
2018-11-13T12:08:55.203Z,68.47
2018-11-13T12:11:24.459Z,68.19
2018-11-13T12:13:53.603Z,67.16
2018-11-13T12:16:22.762Z,65.65
2018-11-13T12:18:52.517Z,65.85
2018-11-13T12:21:21.641Z,66.27
2018-11-13T12:23:50.799Z,66.58
2018-11-13T12:26:19.995Z,66.54
2018-11-13T12:28:49.566Z,66.75
2018-11-13T12:31:19.595Z,66.26
2018-11-13T12:33:49.608Z,66.71
2018-11-13T12:36:19.499Z,66.40
2018-11-13T12:38:49.536Z,65.47
2018-11-13T12:41:19.534Z,66.57
2018-11-13T12:43:49.602Z,64.03
2018-11-13T12:46:19.642Z,64.89
2018-11-13T12:48:49.615Z,63.94
2018-11-13T12:51:24.964Z,63.64
2018-11-13T12:53:54.106Z,65.19
2018-11-13T12:56:23.549Z,64.42
2018-11-13T12:58:52.663Z,64.15
2018-11-13T13:01:21.884Z,63.56
2018-11-13T13:03:51.036Z,63.53
2018-11-13T13:06:20.211Z,63.43
2018-11-13T13:08:49.661Z,65.44
2018-11-13T13:11:19.660Z,63.57
2018-11-13T13:13:53.744Z,63.33
2018-11-13T13:16:23.865Z,63.46
2018-11-13T13:18:54.101Z,63.43
2018-11-13T13:21:23.276Z,64.08
2018-11-13T13:23:52.445Z,63.01
2018-11-13T13:26:21.584Z,61.67
2018-11-13T13:28:50.729Z,62.48
2018-11-13T13:31:19.988Z,63.02
2018-11-13T13:33:49.698Z,62.98
2018-11-13T13:36:19.739Z,61.85
2018-11-13T13:38:49.814Z,62.00
2018-11-13T13:41:19.739Z,62.07
2018-11-13T13:43:49.680Z,62.30
2018-11-13T13:46:19.712Z,62.05
2018-11-13T13:48:49.775Z,62.17
2018-11-13T13:51:19.718Z,61.74
2018-11-13T13:53:49.771Z,61.74
2018-11-13T13:56:19.678Z,61.05
2018-11-13T13:58:49.784Z,60.97
2018-11-13T14:01:19.798Z,61.46
2018-11-13T14:03:49.768Z,61.34
2018-11-13T14:06:19.772Z,60.92
2018-11-13T14:08:49.744Z,60.71
2018-11-13T14:11:19.779Z,60.19
2018-11-13T14:13:49.800Z,59.61
2018-11-13T14:16:19.788Z,59.67
2018-11-13T14:18:49.811Z,58.89
2018-11-13T14:21:19.887Z,58.88
2018-11-13T14:23:49.031Z,59.61
2018-11-13T14:26:18.179Z,59.07
2018-11-13T14:28:47.556Z,59.51
2018-11-13T14:31:16.650Z,59.91
2018-11-13T14:33:45.891Z,59.47
2018-11-13T14:36:15.048Z,60.09
2018-11-13T14:38:44.217Z,59.91
2018-11-13T14:41:13.380Z,58.97
2018-11-13T14:43:42.532Z,59.12
2018-11-13T14:46:11.680Z,59.70
2018-11-13T14:48:40.868Z,59.86
2018-11-13T14:51:10.008Z,59.29
2018-11-13T14:53:39.188Z,59.14
2018-11-13T14:56:08.338Z,59.88
2018-11-13T14:58:37.514Z,60.40
2018-11-13T15:01:07.076Z,60.22
2018-11-13T15:03:36.303Z,59.85
2018-11-13T15:06:06.780Z,60.50
2018-11-13T15:08:35.947Z,60.88
2018-11-13T15:11:05.381Z,61.20
2018-11-13T15:13:34.645Z,60.25
2018-11-13T15:16:03.909Z,60.87
2018-11-13T15:18:33.075Z,60.54
2018-11-13T15:21:02.706Z,60.27
2018-11-13T15:23:31.995Z,60.60
2018-11-13T15:26:01.150Z,59.98
2018-11-13T15:28:30.303Z,61.30
2018-11-13T15:30:59.492Z,60.85
2018-11-13T15:33:28.616Z,60.49
2018-11-13T15:35:57.784Z,60.68
2018-11-13T15:38:26.967Z,60.78
2018-11-13T15:40:56.102Z,61.74
2018-11-13T15:43:26.724Z,61.67
2018-11-13T15:45:56.248Z,62.44
2018-11-13T15:48:28.206Z,61.25
2018-11-13T15:50:57.376Z,62.56
2018-11-13T15:53:26.543Z,62.29
2018-11-13T15:55:55.691Z,62.55
2018-11-13T15:58:24.855Z,62.84
2018-11-13T16:00:54.131Z,62.59
2018-11-13T16:03:26.096Z,62.43
2018-11-13T16:05:56.047Z,62.65
2018-11-13T16:08:25.185Z,62.59
2018-11-13T16:10:54.451Z,61.94
2018-11-13T16:13:23.611Z,62.31
2018-11-13T16:15:52.816Z,62.53
2018-11-13T16:18:24.093Z,62.14
2018-11-13T16:20:54.744Z,62.95
2018-11-13T16:23:25.654Z,62.57
2018-11-13T16:26:00.786Z,62.81
2018-11-13T16:28:36.952Z,62.51
2018-11-13T16:31:10.706Z,62.82
2018-11-13T16:33:39.836Z,63.04
2018-11-13T16:36:09.125Z,62.65
2018-11-13T16:38:38.231Z,62.58
2018-11-13T16:41:07.420Z,62.91
2018-11-13T16:43:36.818Z,62.60
2018-11-13T16:46:07.126Z,62.94
2018-11-13T16:48:36.262Z,63.15
2018-11-13T16:51:05.672Z,63.39
2018-11-13T16:53:40.280Z,63.21
2018-11-13T16:56:09.404Z,63.33
2018-11-13T16:58:38.560Z,63.12
2018-11-13T17:01:07.796Z,63.10
2018-11-13T17:03:36.902Z,63.68
2018-11-13T17:06:06.251Z,63.23
2018-11-13T17:08:35.295Z,63.90
2018-11-13T17:11:04.537Z,64.11
2018-11-13T17:13:33.668Z,64.63
2018-11-13T17:16:02.862Z,64.84
2018-11-13T17:18:32.016Z,63.77
2018-11-13T17:21:01.190Z,64.25
2018-11-13T17:23:30.347Z,63.77
2018-11-13T17:25:59.540Z,64.19
2018-11-13T17:28:28.647Z,64.14
2018-11-13T17:30:57.840Z,64.13
2018-11-13T17:33:27.063Z,64.37
2018-11-13T17:35:56.241Z,63.93
2018-11-13T17:38:25.385Z,64.11
2018-11-13T17:40:54.552Z,63.73
2018-11-13T17:43:23.690Z,63.52
2018-11-13T17:45:52.967Z,64.38
2018-11-13T17:48:22.128Z,64.27
2018-11-13T17:50:51.348Z,64.51
2018-11-13T17:53:20.574Z,64.14
2018-11-13T17:55:50.300Z,64.09
2018-11-13T17:58:20.292Z,64.08
2018-11-13T18:00:50.236Z,64.00
2018-11-13T18:03:20.229Z,63.76
2018-11-13T18:05:50.335Z,64.42
2018-11-13T18:08:20.272Z,64.51
2018-11-13T18:11:15.796Z,64.42
2018-11-13T18:13:45.036Z,64.61
2018-11-13T18:16:14.289Z,65.49
2018-11-13T18:18:43.346Z,64.43
2018-11-13T18:23:41.013Z,64.67
2018-11-13T18:26:10.064Z,64.72
2018-11-13T18:28:39.234Z,65.13
2018-11-13T18:31:08.476Z,64.71
2018-11-13T18:33:37.631Z,64.59
2018-11-13T18:36:07.991Z,65.02
2018-11-13T18:38:37.390Z,65.20
2018-11-13T18:41:07.303Z,65.14
2018-11-13T18:43:36.459Z,65.16
2018-11-13T18:46:05.685Z,65.14
2018-11-13T18:48:35.099Z,65.05
2018-11-13T18:51:04.334Z,64.79
2018-11-13T18:53:33.554Z,64.43
2018-11-13T18:56:02.647Z,65.21
2018-11-13T18:58:31.804Z,65.41
2018-11-13T19:01:00.996Z,64.56
2018-11-13T19:03:30.146Z,64.87
2018-11-13T19:05:59.356Z,64.46
2018-11-13T19:08:28.495Z,64.29
2018-11-13T19:10:57.756Z,64.35
2018-11-13T19:13:27.978Z,65.13
2018-11-13T19:16:01.031Z,64.99
2018-11-13T19:18:30.512Z,65.90
2018-11-13T19:20:59.634Z,65.77
2018-11-13T19:23:28.775Z,65.58
2018-11-13T19:25:57.970Z,64.86
2018-11-13T19:28:27.179Z,65.66
2018-11-13T19:30:56.335Z,65.79
2018-11-13T19:33:25.512Z,65.92
2018-11-13T19:35:54.764Z,65.56
2018-11-13T19:38:23.901Z,65.63
2018-11-13T19:40:53.107Z,65.49
2018-11-13T19:43:22.283Z,64.89
2018-11-13T19:45:51.419Z,66.46
2018-11-13T19:48:20.591Z,65.27
2018-11-13T19:50:50.516Z,65.25
2018-11-13T19:53:20.598Z,65.21
2018-11-13T19:55:50.488Z,64.92
2018-11-13T19:58:20.712Z,64.20
2018-11-13T20:00:50.533Z,64.39
2018-11-13T20:03:20.584Z,64.68
2018-11-13T20:05:50.594Z,64.41
2018-11-13T20:08:20.584Z,65.67
2018-11-13T20:10:50.488Z,65.91
2018-11-13T20:13:20.542Z,66.29
2018-11-13T20:15:50.555Z,66.56
2018-11-13T20:18:21.124Z,66.24
2018-11-13T20:20:50.811Z,66.58
2018-11-13T20:23:20.679Z,66.09
2018-11-13T20:25:50.630Z,66.42
2018-11-13T20:28:20.547Z,66.33
2018-11-13T20:30:50.558Z,66.50
2018-11-13T20:33:20.535Z,65.58
2018-11-13T20:35:50.554Z,65.52
2018-11-13T20:38:20.623Z,65.80
2018-11-13T20:40:50.575Z,65.84
2018-11-13T20:43:20.584Z,66.03
2018-11-13T20:45:50.630Z,66.16
2018-11-13T20:48:20.844Z,66.42
2018-11-13T20:50:50.624Z,66.12
2018-11-13T20:53:20.651Z,66.17
2018-11-13T20:55:50.647Z,65.86
2018-11-13T20:58:20.663Z,65.76
2018-11-13T21:00:52.215Z,67.08
2018-11-13T21:03:21.448Z,66.89
2018-11-13T21:05:50.728Z,67.34
2018-11-13T21:08:20.667Z,67.06
2018-11-13T21:10:54.731Z,66.29
2018-11-13T21:13:23.940Z,66.69
2018-11-13T21:15:53.092Z,66.96
2018-11-13T21:18:22.338Z,66.71
2018-11-13T21:20:51.474Z,66.92
2018-11-13T21:23:20.729Z,66.71
2018-11-13T21:25:50.632Z,67.55
2018-11-13T21:28:21.076Z,66.90
2018-11-13T21:30:50.678Z,66.51
2018-11-13T21:33:20.687Z,66.75
2018-11-13T21:35:50.634Z,66.09
2018-11-13T21:38:20.723Z,65.94
2018-11-13T21:40:50.763Z,67.39
2018-11-13T21:43:20.763Z,66.54
2018-11-13T21:45:50.768Z,66.04
2018-11-13T21:48:20.701Z,66.69
2018-11-13T21:50:50.735Z,66.48
2018-11-13T21:53:20.756Z,66.29
2018-11-13T21:55:50.696Z,66.72
2018-11-13T21:58:20.733Z,66.61
2018-11-13T22:00:50.736Z,66.33
2018-11-13T22:03:20.701Z,67.09
2018-11-13T22:05:50.860Z,66.71
2018-11-13T22:08:20.771Z,66.09
2018-11-13T22:10:53.744Z,65.78
2018-11-13T22:13:22.900Z,66.22
2018-11-13T22:15:52.140Z,66.79
2018-11-13T22:18:21.359Z,66.73
2018-11-13T22:20:50.780Z,66.47
2018-11-13T22:23:20.869Z,66.50
2018-11-13T22:25:50.812Z,66.38
2018-11-13T22:28:20.854Z,66.67
2018-11-13T22:30:50.731Z,66.19
2018-11-13T22:33:20.776Z,65.93
2018-11-13T22:35:50.772Z,65.79
2018-11-13T22:38:20.844Z,65.70
2018-11-13T22:40:50.869Z,65.95
2018-11-13T22:43:20.844Z,65.73
2018-11-13T22:45:50.747Z,65.62
2018-11-13T22:48:20.814Z,64.96
2018-11-13T22:50:50.937Z,66.00
2018-11-13T22:53:20.808Z,65.98
2018-11-13T22:55:50.808Z,65.92
2018-11-13T22:58:20.828Z,66.00
2018-11-13T23:00:51.049Z,65.13
2018-11-13T23:03:20.929Z,66.05
2018-11-13T23:05:51.126Z,66.47
2018-11-13T23:08:21.571Z,65.84
2018-11-13T23:10:51.262Z,65.94
2018-11-13T23:13:20.835Z,65.17
2018-11-13T23:15:50.802Z,65.37
2018-11-13T23:18:20.927Z,65.41
2018-11-13T23:20:50.883Z,64.86
2018-11-13T23:23:20.911Z,65.28
2018-11-13T23:25:50.917Z,65.10
2018-11-13T23:28:20.936Z,65.56
2018-11-13T23:30:51.431Z,66.19
2018-11-13T23:33:20.864Z,65.40
2018-11-13T23:35:50.888Z,66.04
2018-11-13T23:38:20.896Z,65.97
2018-11-13T23:40:51.020Z,65.91
2018-11-13T23:43:20.922Z,66.73
2018-11-13T23:45:50.938Z,66.61
2018-11-13T23:48:20.876Z,66.21
2018-11-13T23:50:50.993Z,65.90
2018-11-13T23:53:20.976Z,66.11
2018-11-13T23:55:50.922Z,66.38
2018-11-13T23:58:20.921Z,66.20
